Time;durP1;ratioP1;P1;durP2;ratioP2;P2;SDS_P1;SDS_P2;PMS_P1;PMS_P2;Temp;Humidity;BMP_temperature;BMP_pressure;BME280_temperature;BME280_humidity;BME280_pressure;Samples;Min_cycle;Max_cycle;Signal;HPM_P1;HPM_P2
2023/09/30 00:00:26;;;;;;;14.00;4.15;;;13.50;97.10;;;;;;4976475;28;20027;-82
2023/09/30 00:02:52;;;;;;;10.10;4.15;;;13.50;97.10;;;;;;4980922;28;20093;-82
2023/09/30 00:05:19;;;;;;;13.95;4.20;;;13.50;97.20;;;;;;4983901;28;20078;-82
2023/09/30 00:07:46;;;;;;;16.10;3.75;;;13.50;97.30;;;;;;4981977;28;20047;-81
2023/09/30 00:10:11;;;;;;;14.20;4.82;;;13.50;97.30;;;;;;4979606;28;20054;-83
2023/09/30 00:12:38;;;;;;;15.27;4.22;;;13.50;97.30;;;;;;4961097;28;20035;-82
2023/09/30 00:15:04;;;;;;;12.13;4.88;;;13.50;97.40;;;;;;4976561;28;20073;-83
2023/09/30 00:17:30;;;;;;;12.23;4.63;;;13.50;97.40;;;;;;4959835;28;20031;-83
2023/09/30 00:19:55;;;;;;;12.88;4.55;;;13.50;97.50;;;;;;4976062;28;20034;-82
2023/09/30 00:22:21;;;;;;;11.95;4.10;;;13.50;97.50;;;;;;4976467;28;20035;-81
2023/09/30 00:24:47;;;;;;;16.42;4.30;;;13.50;97.50;;;;;;4975590;28;20042;-82
2023/09/30 00:27:12;;;;;;;12.95;4.93;;;13.50;97.60;;;;;;4975788;28;20054;-82
2023/09/30 00:29:38;;;;;;;18.17;5.05;;;13.50;97.70;;;;;;4976019;28;20479;-83
2023/09/30 00:32:04;;;;;;;12.75;4.10;;;13.50;97.70;;;;;;4958633;28;20161;-82
2023/09/30 00:34:33;;;;;;;12.80;4.35;;;13.50;97.80;;;;;;4975739;28;20050;-82
2023/09/30 00:36:59;;;;;;;17.23;4.40;;;13.50;97.80;;;;;;4975935;28;20450;-82
2023/09/30 00:39:29;;;;;;;12.55;4.47;;;13.50;97.80;;;;;;4974009;28;20558;-82
2023/09/30 00:41:55;;;;;;;13.25;4.30;;;13.50;98.20;;;;;;4975690;28;20046;-82
2023/09/30 00:44:20;;;;;;;18.23;4.70;;;13.50;97.90;;;;;;4975592;28;20035;-82
2023/09/30 00:46:46;;;;;;;13.52;3.67;;;13.50;97.90;;;;;;4975607;28;20082;-82
2023/09/30 00:49:14;;;;;;;13.20;4.40;;;13.40;97.90;;;;;;4975396;28;20039;-82
2023/09/30 00:51:39;;;;;;;12.82;3.80;;;13.40;98.00;;;;;;4975138;28;20050;-82
2023/09/30 00:54:06;;;;;;;15.88;4.35;;;13.40;98.00;;;;;;4974668;28;20492;-82
2023/09/30 00:56:32;;;;;;;11.07;4.53;;;13.40;98.00;;;;;;4957984;28;20034;-79
2023/09/30 00:58:59;;;;;;;11.65;4.72;;;13.30;98.10;;;;;;4958326;28;20062;-79
2023/09/30 01:01:26;;;;;;;11.13;4.28;;;13.40;98.20;;;;;;4957883;28;20047;-78
2023/09/30 01:03:52;;;;;;;11.00;4.07;;;13.30;98.20;;;;;;4975448;28;20042;-79
2023/09/30 01:06:18;;;;;;;16.30;5.50;;;13.30;98.20;;;;;;4975062;28;20505;-78
2023/09/30 01:08:44;;;;;;;12.68;4.55;;;13.30;98.10;;;;;;4974704;28;20035;-79
2023/09/30 01:11:10;;;;;;;18.15;5.00;;;13.30;98.10;;;;;;4975087;28;20077;-79
2023/09/30 01:13:37;;;;;;;12.50;3.72;;;13.20;98.10;;;;;;4975082;28;20054;-79
2023/09/30 01:16:09;;;;;;;10.57;3.97;;;13.20;98.10;;;;;;4975175;28;20082;-79
2023/09/30 01:18:35;;;;;;;12.82;4.47;;;13.20;98.10;;;;;;4957514;28;20486;-79
2023/09/30 01:21:06;;;;;;;10.48;4.38;;;13.20;98.20;;;;;;4974629;28;20046;-79
2023/09/30 01:23:33;;;;;;;12.10;4.38;;;13.20;98.20;;;;;;4974662;28;20488;-79
2023/09/30 01:26:09;;;;;;;11.52;4.43;;;13.20;98.20;;;;;;4957635;28;20081;-79
2023/09/30 01:28:36;;;;;;;12.60;3.95;;;13.10;98.20;;;;;;4974792;28;20122;-79
2023/09/30 01:31:01;;;;;;;11.68;5.10;;;13.10;98.30;;;;;;4957480;28;20038;-79
2023/09/30 01:33:28;;;;;;;10.57;4.20;;;13.10;98.30;;;;;;4975464;28;20026;-79
2023/09/30 01:35:54;;;;;;;14.40;5.10;;;13.10;98.40;;;;;;4974925;28;20026;-79
2023/09/30 01:38:19;;;;;;;12.27;4.97;;;13.10;98.50;;;;;;4956944;28;20034;-78
2023/09/30 01:40:46;;;;;;;13.95;5.28;;;13.10;98.60;;;;;;4974761;28;20045;-78
2023/09/30 01:43:13;;;;;;;14.68;5.07;;;13.10;98.60;;;;;;4957011;28;20127;-78
2023/09/30 01:45:39;;;;;;;11.48;4.68;;;13.00;98.70;;;;;;4974388;28;20034;-78
2023/09/30 01:48:05;;;;;;;13.50;4.95;;;13.00;98.80;;;;;;4974402;28;20039;-78
2023/09/30 01:50:31;;;;;;;14.05;4.78;;;13.00;98.90;;;;;;4974262;28;20049;-78
2023/09/30 01:52:57;;;;;;;13.63;4.85;;;13.00;98.90;;;;;;4972959;28;20558;-78
2023/09/30 01:55:23;;;;;;;13.32;4.57;;;13.10;98.90;;;;;;4974515;28;20089;-78
2023/09/30 01:57:48;;;;;;;16.27;4.70;;;13.00;98.90;;;;;;4974046;28;20507;-78
2023/09/30 02:00:14;;;;;;;13.18;5.30;;;13.00;98.90;;;;;;4974248;28;20118;-78
2023/09/30 02:02:40;;;;;;;10.90;4.78;;;13.00;98.90;;;;;;4974444;28;20072;-78
2023/09/30 02:05:08;;;;;;;15.75;5.00;;;13.00;98.90;;;;;;4974708;28;20038;-79
2023/09/30 02:07:34;;;;;;;13.70;5.53;;;13.00;98.90;;;;;;4973943;28;20042;-78
2023/09/30 02:10:01;;;;;;;15.50;4.93;;;13.00;99.00;;;;;;4974443;28;20026;-78
2023/09/30 02:12:28;;;;;;;18.83;5.63;;;12.90;99.00;;;;;;4974971;28;20521;-81
2023/09/30 02:14:54;;;;;;;12.48;4.60;;;12.90;98.90;;;;;;4974320;28;20071;-78
2023/09/30 02:17:19;;;;;;;11.45;4.55;;;12.90;98.90;;;;;;4974253;28;20065;-78
2023/09/30 02:19:45;;;;;;;12.88;5.22;;;12.90;98.90;;;;;;4974116;28;20096;-78
2023/09/30 02:22:11;;;;;;;15.93;5.50;;;12.80;98.90;;;;;;4973601;28;20039;-78
2023/09/30 02:24:39;;;;;;;14.02;5.88;;;12.80;99.00;;;;;;4972823;28;20039;-78
2023/09/30 02:27:06;;;;;;;15.85;5.95;;;12.80;99.10;;;;;;4974104;28;20046;-78
2023/09/30 02:29:31;;;;;;;17.50;5.95;;;12.80;99.30;;;;;;4956873;28;20030;-78
2023/09/30 02:31:57;;;;;;;12.50;4.93;;;12.80;99.40;;;;;;4974188;28;20406;-78
2023/09/30 02:34:23;;;;;;;17.77;6.60;;;12.80;99.40;;;;;;4973878;28;20439;-80
2023/09/30 02:36:49;;;;;;;15.60;6.00;;;12.90;99.50;;;;;;4973937;28;20043;-80
2023/09/30 02:39:16;;;;;;;12.82;6.72;;;12.80;99.60;;;;;;4974131;28;20050;-80
2023/09/30 02:41:42;;;;;;;14.20;6.13;;;12.90;99.70;;;;;;4973942;28;20039;-80
2023/09/30 02:44:08;;;;;;;15.43;5.45;;;12.90;99.70;;;;;;4973857;28;20050;-79
2023/09/30 02:46:34;;;;;;;14.07;6.40;;;12.90;99.80;;;;;;4973975;28;20047;-79
2023/09/30 02:49:02;;;;;;;14.15;6.28;;;12.90;99.90;;;;;;4973528;28;20102;-80
2023/09/30 02:51:28;;;;;;;15.93;6.30;;;13.00;99.90;;;;;;4973985;28;20065;-80
2023/09/30 02:53:53;;;;;;;15.75;7.35;;;13.00;99.90;;;;;;4956530;28;20035;-79
2023/09/30 02:56:19;;;;;;;12.18;6.00;;;13.00;99.90;;;;;;4956739;28;20534;-79
2023/09/30 02:58:46;;;;;;;16.30;6.80;;;13.00;99.90;;;;;;4956530;28;20062;-79
2023/09/30 03:01:16;;;;;;;13.43;6.35;;;13.00;99.90;;;;;;4975185;28;20043;-79
2023/09/30 03:03:44;;;;;;;14.80;6.50;;;13.00;99.90;;;;;;4974341;28;20039;-78
2023/09/30 03:06:10;;;;;;;13.90;6.65;;;13.10;99.90;;;;;;4976818;28;20083;-79
2023/09/30 03:08:36;;;;;;;14.88;5.75;;;13.10;99.90;;;;;;4959008;28;20038;-79
2023/09/30 03:11:02;;;;;;;15.27;6.50;;;13.20;99.90;;;;;;4973844;28;20117;-80
2023/09/30 03:13:28;;;;;;;13.05;6.25;;;13.20;99.90;;;;;;4973557;28;20035;-79
2023/09/30 03:15:53;;;;;;;17.35;6.78;;;13.20;99.90;;;;;;4975012;28;20039;-79
2023/09/30 03:18:26;;;;;;;15.60;6.38;;;13.30;99.90;;;;;;4976953;28;20450;-79
2023/09/30 03:21:00;;;;;;;11.20;5.97;;;13.20;99.90;;;;;;4977115;28;20098;-79
2023/09/30 03:23:30;;;;;;;15.10;7.13;;;13.30;99.90;;;;;;4977031;28;20075;-79
2023/09/30 03:25:57;;;;;;;13.48;6.63;;;13.20;99.90;;;;;;4977217;28;20070;-79
2023/09/30 03:28:23;;;;;;;13.98;6.78;;;13.30;99.90;;;;;;4977172;28;20031;-82
2023/09/30 03:30:48;;;;;;;16.27;6.65;;;13.30;99.90;;;;;;4977231;28;20038;-79
2023/09/30 03:33:14;;;;;;;11.93;5.68;;;13.30;99.90;;;;;;4975322;28;20037;-79
2023/09/30 03:35:40;;;;;;;11.07;5.90;;;13.20;99.90;;;;;;4978520;28;20066;-79
2023/09/30 03:38:06;;;;;;;15.77;7.63;;;13.20;99.90;;;;;;4977482;28;20042;-78
2023/09/30 03:40:33;;;;;;;14.15;6.63;;;13.20;99.90;;;;;;4977301;28;20034;-79
2023/09/30 03:42:59;;;;;;;16.88;7.07;;;13.20;99.90;;;;;;4977528;28;20487;-78
2023/09/30 03:45:25;;;;;;;16.05;6.65;;;13.20;99.90;;;;;;4976531;28;20039;-79
2023/09/30 03:47:51;;;;;;;13.55;6.80;;;13.20;99.90;;;;;;4976273;28;20070;-82
2023/09/30 03:50:17;;;;;;;13.73;6.95;;;13.20;99.90;;;;;;4976643;28;20061;-82
2023/09/30 03:52:47;;;;;;;14.35;7.07;;;13.20;99.90;;;;;;4976802;28;20070;-82
2023/09/30 03:55:15;;;;;;;15.77;7.82;;;13.20;99.90;;;;;;4976408;28;20062;-82
2023/09/30 03:57:41;;;;;;;13.48;6.78;;;13.20;99.90;;;;;;4976081;28;20407;-82
2023/09/30 04:00:11;;;;;;;16.10;7.22;;;13.20;99.90;;;;;;4976369;28;20035;-82
2023/09/30 04:02:37;;;;;;;13.25;7.03;;;13.20;99.90;;;;;;4958799;28;20039;-82
2023/09/30 04:05:05;;;;;;;13.32;7.22;;;13.20;99.90;;;;;;4959142;28;20042;-82
2023/09/30 04:07:31;;;;;;;14.02;8.35;;;13.20;99.90;;;;;;4976202;28;20403;-82
2023/09/30 04:09:56;;;;;;;18.05;8.13;;;13.20;99.90;;;;;;4976167;28;20057;-82
2023/09/30 04:12:25;;;;;;;14.55;7.78;;;13.20;99.90;;;;;;4976200;28;20491;-82
2023/09/30 04:14:52;;;;;;;13.68;8.07;;;13.20;99.90;;;;;;4975998;28;20034;-82
2023/09/30 04:17:17;;;;;;;14.40;7.70;;;13.10;99.90;;;;;;4958398;28;20026;-82
2023/09/30 04:19:43;;;;;;;14.55;7.63;;;13.20;99.90;;;;;;4976178;28;20038;-82
2023/09/30 04:22:09;;;;;;;18.95;8.73;;;13.20;99.90;;;;;;4958644;28;20135;-82
2023/09/30 04:24:34;;;;;;;13.13;8.05;;;13.20;99.90;;;;;;4975960;28;20138;-82
2023/09/30 04:27:03;;;;;;;17.17;8.18;;;13.10;99.90;;;;;;4975784;28;20430;-82
2023/09/30 04:29:29;;;;;;;16.85;8.57;;;13.20;99.90;;;;;;4977012;28;20075;-82
2023/09/30 04:31:56;;;;;;;16.35;8.90;;;13.10;99.90;;;;;;4959285;28;20023;-82
2023/09/30 04:34:21;;;;;;;18.08;9.35;;;13.10;99.90;;;;;;4975968;28;20030;-82
2023/09/30 04:36:47;;;;;;;18.58;9.93;;;13.10;99.90;;;;;;4975518;28;20049;-82
2023/09/30 04:39:14;;;;;;;19.33;9.05;;;13.20;99.90;;;;;;4975705;28;20122;-82
2023/09/30 04:41:41;;;;;;;18.50;9.40;;;13.20;99.90;;;;;;4975694;28;20031;-82
2023/09/30 04:44:09;;;;;;;16.95;9.23;;;13.10;99.90;;;;;;4975657;28;20029;-82
2023/09/30 04:46:35;;;;;;;17.67;9.20;;;13.10;99.90;;;;;;4958004;28;20030;-78
2023/09/30 04:49:04;;;;;;;18.05;8.93;;;13.20;99.90;;;;;;4958029;28;20039;-78
2023/09/30 04:51:33;;;;;;;14.55;9.27;;;13.20;99.90;;;;;;4975404;28;20518;-79
2023/09/30 04:53:59;;;;;;;17.50;8.27;;;13.10;99.90;;;;;;4974244;28;20435;-79
2023/09/30 04:56:25;;;;;;;16.15;8.98;;;13.20;99.90;;;;;;4975200;28;20031;-78
2023/09/30 04:58:51;;;;;;;17.73;9.50;;;13.20;99.90;;;;;;4975269;28;20051;-79
2023/09/30 05:01:18;;;;;;;17.10;9.15;;;13.20;99.90;;;;;;4959309;28;20517;-79
2023/09/30 05:03:49;;;;;;;20.60;8.98;;;13.20;99.90;;;;;;4975571;28;20027;-80
2023/09/30 05:06:15;;;;;;;17.77;9.35;;;13.20;99.90;;;;;;4976136;28;20074;-79
2023/09/30 05:08:41;;;;;;;16.70;9.43;;;13.20;99.90;;;;;;4977043;28;20026;-79
2023/09/30 05:11:07;;;;;;;19.58;9.48;;;13.20;99.90;;;;;;4976549;28;20062;-79
2023/09/30 05:13:34;;;;;;;18.65;9.23;;;13.20;99.90;;;;;;4972034;28;20077;-79
2023/09/30 05:15:59;;;;;;;18.17;9.80;;;13.20;99.90;;;;;;4994737;28;20033;-79
2023/09/30 05:18:25;;;;;;;21.33;9.90;;;13.20;99.90;;;;;;4987180;28;20038;-79
2023/09/30 05:20:51;;;;;;;17.85;10.02;;;13.20;99.90;;;;;;4976785;28;20169;-79
2023/09/30 05:23:18;;;;;;;17.60;9.50;;;13.20;99.90;;;;;;4976410;28;20074;-78
2023/09/30 05:25:44;;;;;;;17.60;9.50;;;13.20;99.90;;;;;;4958113;28;20479;-78
2023/09/30 05:28:11;;;;;;;17.67;10.10;;;13.20;99.90;;;;;;4974684;28;20034;-78
2023/09/30 05:30:37;;;;;;;19.00;10.15;;;13.20;99.90;;;;;;4973109;28;20039;-80
2023/09/30 05:33:03;;;;;;;18.88;10.27;;;13.20;99.90;;;;;;4974450;28;20035;-78
2023/09/30 05:35:29;;;;;;;15.80;9.75;;;13.30;99.90;;;;;;4974648;28;20027;-78
2023/09/30 05:37:55;;;;;;;18.73;10.05;;;13.20;99.90;;;;;;4974231;28;20062;-79
2023/09/30 05:40:30;;;;;;;16.63;9.50;;;13.30;99.90;;;;;;4974567;28;20042;-79
2023/09/30 05:42:59;;;;;;;18.95;10.15;;;13.30;99.90;;;;;;4975173;28;20121;-80
2023/09/30 05:45:34;;;;;;;16.73;9.40;;;13.30;99.90;;;;;;4974324;28;20077;-82
2023/09/30 05:48:07;;;;;;;16.23;9.00;;;13.30;99.90;;;;;;4974926;28;20122;-82
2023/09/30 05:50:36;;;;;;;17.90;9.70;;;13.30;99.90;;;;;;4957206;28;20066;-82
2023/09/30 05:53:03;;;;;;;18.20;10.52;;;13.20;99.90;;;;;;4957162;28;20050;-82
2023/09/30 05:55:29;;;;;;;14.65;8.55;;;13.20;99.90;;;;;;4956989;28;20034;-82
2023/09/30 05:57:55;;;;;;;18.23;9.85;;;13.20;99.90;;;;;;4974002;28;20567;-81
2023/09/30 06:00:22;;;;;;;24.05;11.57;;;13.20;99.90;;;;;;4975999;28;20062;-82
2023/09/30 06:02:48;;;;;;;18.33;10.18;;;13.20;99.90;;;;;;4975300;28;20038;-82
2023/09/30 06:05:18;;;;;;;20.17;10.35;;;13.20;99.90;;;;;;4974325;28;20042;-80
2023/09/30 06:07:47;;;;;;;18.20;10.13;;;13.20;99.90;;;;;;4973090;28;20038;-80
2023/09/30 06:10:18;;;;;;;15.95;9.65;;;13.10;99.90;;;;;;4980111;28;20489;-80
2023/09/30 06:12:44;;;;;;;15.77;9.80;;;13.20;99.90;;;;;;4987581;28;20038;-80
2023/09/30 06:15:10;;;;;;;16.33;9.52;;;13.20;99.90;;;;;;4983547;28;20157;-80
2023/09/30 06:17:36;;;;;;;15.48;9.90;;;13.20;99.90;;;;;;4983156;28;20088;-80
2023/09/30 06:20:09;;;;;;;21.23;9.95;;;13.10;99.90;;;;;;4983787;28;20022;-79
2023/09/30 06:22:35;;;;;;;18.40;9.77;;;13.10;99.90;;;;;;4985181;28;20038;-79
2023/09/30 06:25:03;;;;;;;17.67;10.13;;;13.20;99.90;;;;;;4993402;28;20113;-79
2023/09/30 06:27:29;;;;;;;17.67;10.32;;;13.20;99.90;;;;;;4993236;28;20035;-78
2023/09/30 06:29:55;;;;;;;18.88;9.40;;;13.20;99.90;;;;;;4993670;28;20405;-78
2023/09/30 06:32:21;;;;;;;16.35;10.80;;;13.20;99.90;;;;;;4976007;28;20066;-78
2023/09/30 06:34:46;;;;;;;21.85;10.77;;;13.20;99.90;;;;;;4993425;28;20113;-78
2023/09/30 06:37:12;;;;;;;18.38;9.90;;;13.20;99.90;;;;;;4987093;28;20042;-79
2023/09/30 06:39:38;;;;;;;18.85;10.13;;;13.20;99.90;;;;;;4984527;28;20407;-78
2023/09/30 06:42:03;;;;;;;20.00;9.80;;;13.20;99.90;;;;;;4982862;28;20030;-78
2023/09/30 06:44:31;;;;;;;17.45;9.63;;;13.30;99.90;;;;;;4984339;28;20390;-78
2023/09/30 06:46:56;;;;;;;16.88;9.98;;;13.30;99.90;;;;;;4990962;28;20042;-78
2023/09/30 06:49:22;;;;;;;18.75;9.60;;;13.30;99.90;;;;;;4984462;28;20554;-79
2023/09/30 06:51:48;;;;;;;16.52;9.98;;;13.30;99.90;;;;;;4996187;28;20082;-79
2023/09/30 06:54:13;;;;;;;18.17;10.07;;;13.30;99.90;;;;;;4996949;28;20109;-79
2023/09/30 06:56:39;;;;;;;16.60;10.52;;;13.30;99.90;;;;;;4996807;28;20109;-79
2023/09/30 06:59:06;;;;;;;17.45;9.88;;;13.30;99.90;;;;;;4993074;28;20038;-79
2023/09/30 07:01:32;;;;;;;16.90;9.55;;;13.40;99.90;;;;;;4996913;28;20117;-79
2023/09/30 07:03:57;;;;;;;14.98;9.05;;;13.40;99.90;;;;;;4996809;28;20186;-79
2023/09/30 07:06:24;;;;;;;16.77;10.15;;;13.40;99.90;;;;;;4996825;28;20092;-79
2023/09/30 07:08:50;;;;;;;18.33;9.18;;;13.50;99.90;;;;;;4996725;28;20034;-79
2023/09/30 07:11:16;;;;;;;20.40;9.63;;;13.50;99.90;;;;;;4996205;28;20497;-79
2023/09/30 07:13:41;;;;;;;18.27;9.65;;;13.50;99.90;;;;;;4996751;28;20030;-79
2023/09/30 07:16:07;;;;;;;15.43;9.45;;;13.50;99.90;;;;;;4996558;28;20085;-79
2023/09/30 07:18:32;;;;;;;17.25;8.63;;;13.60;99.90;;;;;;4996927;28;20031;-79
2023/09/30 07:20:58;;;;;;;17.33;9.55;;;13.60;99.90;;;;;;4997058;28;20031;-81
2023/09/30 07:23:24;;;;;;;15.57;8.68;;;13.70;99.90;;;;;;4999091;28;20027;-81
2023/09/30 07:25:49;;;;;;;15.95;9.38;;;13.70;99.90;;;;;;5000638;28;20117;-81
2023/09/30 07:28:15;;;;;;;18.83;9.93;;;13.80;99.90;;;;;;5002331;28;20475;-82
2023/09/30 07:30:41;;;;;;;22.25;9.70;;;13.80;99.90;;;;;;4984015;28;20023;-82
2023/09/30 07:33:07;;;;;;;20.35;9.52;;;13.90;99.90;;;;;;5001729;28;20065;-81
2023/09/30 07:35:33;;;;;;;17.05;9.55;;;13.90;99.90;;;;;;4999220;28;20046;-81
2023/09/30 07:37:59;;;;;;;18.95;10.07;;;13.90;99.90;;;;;;4996800;28;20457;-82
2023/09/30 07:40:25;;;;;;;14.48;8.98;;;13.90;99.90;;;;;;4995857;28;20170;-81
2023/09/30 07:42:51;;;;;;;21.15;10.40;;;13.90;99.90;;;;;;4995925;28;20027;-81
2023/09/30 07:45:17;;;;;;;14.93;9.45;;;13.90;99.90;;;;;;4996141;28;20117;-81
2023/09/30 07:47:46;;;;;;;19.15;8.82;;;14.00;99.90;;;;;;4978549;28;20590;-81
2023/09/30 07:50:12;;;;;;;21.08;9.40;;;14.00;99.90;;;;;;4995911;28;20035;-81
2023/09/30 07:52:42;;;;;;;15.52;9.15;;;14.00;99.90;;;;;;4978516;28;20403;-82
2023/09/30 07:55:09;;;;;;;17.83;9.80;;;14.10;99.90;;;;;;4995373;28;20035;-81
2023/09/30 07:57:35;;;;;;;16.92;9.65;;;14.10;99.90;;;;;;4996402;28;20514;-81
2023/09/30 08:00:02;;;;;;;19.10;9.40;;;14.20;99.90;;;;;;4996056;28;20066;-81
2023/09/30 08:02:33;;;;;;;19.50;9.93;;;14.20;99.90;;;;;;4995002;28;20033;-82
2023/09/30 08:04:59;;;;;;;19.05;10.07;;;14.30;99.90;;;;;;4995701;28;20042;-81
2023/09/30 08:07:25;;;;;;;18.08;9.02;;;14.30;99.90;;;;;;4996230;28;20394;-82
2023/09/30 08:09:51;;;;;;;15.63;8.65;;;14.30;99.90;;;;;;4995526;28;20034;-82
2023/09/30 08:12:17;;;;;;;21.30;10.02;;;14.40;99.90;;;;;;4984991;28;20534;-81
2023/09/30 08:14:44;;;;;;;16.48;8.93;;;14.40;99.90;;;;;;4976390;28;20038;-82
2023/09/30 08:17:10;;;;;;;17.60;9.18;;;14.50;99.90;;;;;;4976181;28;20034;-82
2023/09/30 08:19:37;;;;;;;19.13;9.25;;;14.50;99.90;;;;;;4942917;28;20408;-81
2023/09/30 08:22:03;;;;;;;19.38;8.85;;;14.60;99.90;;;;;;4976198;28;20043;-82
2023/09/30 08:24:29;;;;;;;16.40;8.95;;;14.60;99.90;;;;;;4977685;28;20186;-81
2023/09/30 08:26:56;;;;;;;14.93;8.35;;;14.70;99.90;;;;;;4975879;28;20196;-81
2023/09/30 08:29:22;;;;;;;18.40;9.77;;;14.80;99.90;;;;;;4975894;28;20082;-82
2023/09/30 08:31:50;;;;;;;19.83;9.35;;;14.80;99.90;;;;;;4958630;28;20030;-82
2023/09/30 08:34:17;;;;;;;18.35;9.65;;;14.90;99.90;;;;;;4977053;28;20121;-82
2023/09/30 08:36:42;;;;;;;18.38;9.95;;;15.00;99.90;;;;;;4958348;28;20046;-82
2023/09/30 08:39:10;;;;;;;19.08;9.35;;;15.10;99.90;;;;;;4975520;28;20410;-82
2023/09/30 08:41:36;;;;;;;18.13;9.27;;;15.10;99.90;;;;;;4975598;28;20110;-82
2023/09/30 08:44:03;;;;;;;18.60;9.35;;;15.20;99.90;;;;;;4975442;28;20083;-82
2023/09/30 08:46:34;;;;;;;15.77;7.47;;;15.20;99.90;;;;;;4975509;28;20394;-83
2023/09/30 08:49:05;;;;;;;18.20;8.63;;;15.30;99.90;;;;;;4975365;28;20039;-81
2023/09/30 08:51:31;;;;;;;18.60;8.52;;;15.50;99.90;;;;;;4976030;28;20030;-80
2023/09/30 08:53:59;;;;;;;20.33;9.88;;;15.50;99.90;;;;;;4976534;28;20030;-80
2023/09/30 08:56:28;;;;;;;20.30;9.77;;;15.60;99.90;;;;;;4976777;28;20495;-80
2023/09/30 08:59:02;;;;;;;19.58;8.32;;;15.60;99.90;;;;;;4976013;28;20134;-80
2023/09/30 09:01:35;;;;;;;18.58;8.70;;;15.70;99.90;;;;;;4977583;28;20030;-80
2023/09/30 09:04:03;;;;;;;15.70;8.38;;;15.80;99.90;;;;;;4961512;28;20594;-80
2023/09/30 09:06:29;;;;;;;16.80;8.15;;;15.90;99.90;;;;;;4976723;28;20042;-79
2023/09/30 09:09:22;;;;;;;17.95;8.23;;;15.90;99.90;;;;;;4979351;28;20160;-80
2023/09/30 09:11:48;;;;;;;19.25;8.18;;;16.00;99.90;;;;;;4975772;28;20179;-80
2023/09/30 09:14:14;;;;;;;14.45;8.48;;;16.10;99.90;;;;;;4986738;28;20042;-79
2023/09/30 09:16:54;;;;;;;17.30;8.75;;;16.20;99.90;;;;;;4994323;28;20027;-80
2023/09/30 09:19:21;;;;;;;20.02;7.35;;;16.30;99.90;;;;;;4978135;28;20035;-79
2023/09/30 09:21:55;;;;;;;15.77;7.63;;;16.30;99.90;;;;;;4976892;28;20503;-80
2023/09/30 09:24:32;;;;;;;16.73;7.80;;;16.40;99.90;;;;;;4977234;28;20062;-80
2023/09/30 09:27:13;;;;;;;13.80;7.05;;;16.50;99.90;;;;;;4995362;28;20034;-80
2023/09/30 09:29:42;;;;;;;16.10;7.30;;;16.60;99.90;;;;;;4994662;28;20042;-81
2023/09/30 09:32:12;;;;;;;14.48;7.28;;;16.60;99.90;;;;;;4977689;28;20030;-80
2023/09/30 09:34:39;;;;;;;14.35;7.60;;;16.70;99.90;;;;;;4996316;28;20057;-81
2023/09/30 09:37:16;;;;;;;13.60;6.88;;;16.70;99.90;;;;;;4994430;28;20031;-81
2023/09/30 09:39:58;;;;;;;13.27;7.18;;;16.80;99.90;;;;;;4976724;28;20113;-80
2023/09/30 09:42:34;;;;;;;11.98;6.43;;;16.80;99.90;;;;;;4977877;28;20038;-81
2023/09/30 09:45:02;;;;;;;13.85;6.72;;;16.80;99.90;;;;;;4976597;28;20085;-82
2023/09/30 09:47:31;;;;;;;14.73;7.10;;;16.90;99.90;;;;;;4994017;28;20114;-82
2023/09/30 09:49:58;;;;;;;15.00;7.15;;;17.10;99.90;;;;;;4993734;28;20505;-82
2023/09/30 09:52:24;;;;;;;14.25;6.53;;;17.20;99.90;;;;;;4994181;28;20041;-81
2023/09/30 09:54:51;;;;;;;16.80;6.60;;;17.30;99.90;;;;;;4976225;28;20482;-80
2023/09/30 09:57:21;;;;;;;12.32;6.38;;;17.50;99.90;;;;;;4993833;28;20057;-84
2023/09/30 09:59:47;;;;;;;15.75;6.93;;;17.60;99.90;;;;;;4995137;28;20066;-81
2023/09/30 10:02:14;;;;;;;11.30;5.78;;;17.70;99.90;;;;;;4993714;28;20030;-81
2023/09/30 10:04:47;;;;;;;10.82;5.93;;;17.90;99.90;;;;;;4993939;28;20481;-83
2023/09/30 10:07:20;;;;;;;13.30;6.28;;;18.10;99.90;;;;;;4993487;28;20104;-81
2023/09/30 10:09:50;;;;;;;16.38;6.13;;;18.30;99.90;;;;;;4993658;28;20042;-82
2023/09/30 10:12:16;;;;;;;14.60;6.07;;;18.50;99.90;;;;;;4976422;28;20137;-83
2023/09/30 10:14:53;;;;;;;9.68;4.38;;;18.70;99.90;;;;;;4993584;28;20030;-83
2023/09/30 10:17:19;;;;;;;11.25;5.20;;;19.00;99.40;;;;;;4975938;28;20034;-84
2023/09/30 10:20:06;;;;;;;13.00;4.57;;;19.10;98.80;;;;;;4993522;28;20026;-83
2023/09/30 10:22:32;;;;;;;11.70;4.72;;;19.20;98.20;;;;;;4993631;28;20058;-82
2023/09/30 10:25:05;;;;;;;15.82;5.07;;;19.30;97.90;;;;;;4995076;28;20505;-82
2023/09/30 10:27:36;;;;;;;11.38;3.88;;;19.40;97.50;;;;;;4980079;28;20073;-84
2023/09/30 10:30:05;;;;;;;13.88;4.68;;;19.60;97.20;;;;;;4980127;28;20042;-82
2023/09/30 10:32:53;;;;;;;9.27;3.67;;;19.80;96.90;;;;;;4997391;28;20078;-82
2023/09/30 10:35:38;;;;;;;11.27;3.85;;;20.00;96.10;;;;;;4997648;28;20034;-83
2023/09/30 10:38:33;;;;;;;10.88;3.92;;;20.20;96.30;;;;;;4996837;28;20046;-82
2023/09/30 10:40:59;;;;;;;10.48;3.45;;;20.50;95.20;;;;;;4994739;28;20110;-82
2023/09/30 10:43:38;;;;;;;8.95;3.30;;;20.70;95.10;;;;;;4979674;28;20072;-81
2023/09/30 10:46:27;;;;;;;10.45;3.03;;;20.90;94.40;;;;;;4997421;28;20038;-82
2023/09/30 10:48:53;;;;;;;9.05;3.42;;;21.10;93.60;;;;;;4996524;28;20035;-78
2023/09/30 10:51:22;;;;;;;11.00;3.90;;;21.20;93.50;;;;;;4997024;28;20041;-79
2023/09/30 10:53:56;;;;;;;8.60;3.45;;;21.40;92.80;;;;;;4997096;28;20042;-79
2023/09/30 10:56:22;;;;;;;;;;;21.60;92.00;;;;;;4997374;28;20109;-78
2023/09/30 10:58:52;;;;;;;9.30;2.33;;;21.80;91.40;;;;;;4979336;28;20004;-78
2023/09/30 11:01:21;;;;;;;8.98;3.08;;;21.80;91.40;;;;;;4997017;28;20070;-77
2023/09/30 11:03:49;;;;;;;10.73;2.90;;;21.90;90.60;;;;;;4979162;28;20069;-79
2023/09/30 11:06:19;;;;;;;7.88;2.90;;;22.00;89.70;;;;;;4996796;28;20089;-79
2023/09/30 11:08:54;;;;;;;8.32;2.92;;;22.00;88.10;;;;;;4996878;28;20401;-81
2023/09/30 11:11:39;;;;;;;8.80;3.15;;;21.90;86.70;;;;;;4996665;28;20058;-82
2023/09/30 11:14:20;;;;;;;6.30;2.35;;;21.90;85.60;;;;;;4996708;28;20561;-81
2023/09/30 11:16:46;;;;;;;8.18;2.58;;;21.90;84.60;;;;;;4996469;28;20058;-80
2023/09/30 11:19:12;;;;;;;8.48;2.03;;;22.10;83.80;;;;;;4979347;28;20034;-83
2023/09/30 11:21:45;;;;;;;12.10;2.58;;;22.10;83.00;;;;;;4996639;28;20101;-82
2023/09/30 11:24:11;;;;;;;7.40;2.05;;;22.30;82.20;;;;;;4996461;28;20042;-82
2023/09/30 11:26:37;;;;;;;7.70;1.92;;;22.40;81.60;;;;;;4978742;28;20045;-82
2023/09/30 11:29:11;;;;;;;8.57;2.28;;;22.50;80.30;;;;;;4996537;28;20448;-82
2023/09/30 11:31:41;;;;;;;10.43;2.53;;;22.40;78.70;;;;;;4996618;28;20030;-82
2023/09/30 11:34:07;;;;;;;8.57;1.73;;;22.40;78.20;;;;;;4996662;28;20045;-83
2023/09/30 11:36:38;;;;;;;7.00;2.00;;;22.30;77.70;;;;;;4978414;28;20046;-82
2023/09/30 11:39:04;;;;;;;8.40;1.92;;;22.20;77.20;;;;;;4996594;28;20474;-82
2023/09/30 11:41:35;;;;;;;5.57;1.77;;;22.10;76.60;;;;;;4996276;28;20037;-80
2023/09/30 11:44:09;;;;;;;5.97;1.52;;;22.20;76.30;;;;;;4996530;28;20384;-82
2023/09/30 11:46:56;;;;;;;6.82;1.85;;;22.40;76.10;;;;;;4996957;28;20034;-83
2023/09/30 11:49:29;;;;;;;5.63;1.30;;;22.70;75.50;;;;;;4996218;28;20030;-82
2023/09/30 11:51:56;;;;;;;7.60;1.90;;;23.00;74.40;;;;;;4995851;28;20517;-83
2023/09/30 11:54:22;;;;;;;8.57;1.45;;;23.20;73.70;;;;;;4978644;28;20057;-83
2023/09/30 11:56:50;;;;;;;6.50;1.70;;;23.30;72.60;;;;;;4996108;28;20489;-84
2023/09/30 11:59:19;;;;;;;11.50;2.35;;;23.50;71.30;;;;;;4978591;28;20425;-84
2023/09/30 12:01:45;;;;;;;6.85;1.67;;;23.70;70.70;;;;;;4996116;28;20062;-84
2023/09/30 12:04:11;;;;;;;7.55;1.55;;;24.00;70.10;;;;;;4996602;28;20066;-83
2023/09/30 12:06:38;;;;;;;9.40;1.85;;;24.20;69.40;;;;;;4997486;28;20047;-83
2023/09/30 12:09:03;;;;;;;9.10;2.10;;;24.40;69.10;;;;;;4998209;28;20109;-84
2023/09/30 12:11:29;;;;;;;5.10;1.55;;;24.50;68.70;;;;;;4998936;28;20453;-83
2023/09/30 12:13:55;;;;;;;10.65;2.10;;;24.60;68.00;;;;;;4978949;28;20580;-83
2023/09/30 12:16:21;;;;;;;6.53;1.80;;;24.70;67.00;;;;;;4977813;28;20026;-83
2023/09/30 12:18:46;;;;;;;6.95;1.77;;;24.70;66.50;;;;;;4978124;28;20038;-83
2023/09/30 12:21:19;;;;;;;5.68;1.45;;;24.70;66.20;;;;;;4995641;28;20118;-84
2023/09/30 12:23:45;;;;;;;6.07;1.52;;;24.60;65.90;;;;;;4996018;28;20096;-86
2023/09/30 12:26:11;;;;;;;7.95;1.50;;;24.60;65.70;;;;;;4995975;28;20046;-81
2023/09/30 12:28:40;;;;;;;7.82;1.40;;;24.50;65.00;;;;;;5002083;28;20035;-81
2023/09/30 12:31:06;;;;;;;7.82;1.80;;;24.50;64.00;;;;;;4984366;28;20042;-82
2023/09/30 12:33:32;;;;;;;6.13;1.58;;;24.60;63.60;;;;;;5001075;28;20030;-82
2023/09/30 12:35:59;;;;;;;5.93;1.40;;;24.70;63.10;;;;;;4995511;28;20026;-81
2023/09/30 12:38:25;;;;;;;6.05;1.38;;;24.90;62.50;;;;;;4995007;28;20062;-84
2023/09/30 12:40:53;;;;;;;7.53;1.65;;;25.10;62.30;;;;;;4995308;28;20030;-82